Time;durP1;ratioP1;P1;durP2;ratioP2;P2;SDS_P1;SDS_P2;PMS_P1;PMS_P2;Temp;Humidity;BMP_temperature;BMP_pressure;BME280_temperature;BME280_humidity;BME280_pressure;Samples;Min_cycle;Max_cycle;Signal;HPM_P1;HPM_P2
2023/01/11 00:00:09;;;;;;;1.60;1.27;;;;;;;2.73;100.00;97140.22;5033723;28;20115;-79
2023/01/11 00:02:44;;;;;;;1.33;1.23;;;;;;;2.71;100.00;97144.66;5029155;28;20111;-79
2023/01/11 00:05:10;;;;;;;1.75;1.65;;;;;;;2.69;100.00;97142.09;5023735;28;20049;-79
2023/01/11 00:07:36;;;;;;;1.25;0.82;;;;;;;2.79;100.00;97147.03;4998296;28;20033;-79
2023/01/11 00:10:03;;;;;;;2.00;1.88;;;;;;;2.72;100.00;97139.34;5009511;28;20022;-78
2023/01/11 00:12:29;;;;;;;2.25;2.10;;;;;;;2.68;100.00;97143.00;5007954;28;20017;-79
2023/01/11 00:14:55;;;;;;;1.15;1.15;;;;;;;2.66;100.00;97150.16;5003504;28;20127;-78
2023/01/11 00:17:21;;;;;;;1.67;1.58;;;;;;;2.66;100.00;97144.00;5005827;28;20052;-78
2023/01/11 00:19:46;;;;;;;0.60;0.60;;;;;;;2.65;100.00;97155.47;5005311;28;20025;-79
2023/01/11 00:22:12;;;;;;;4.75;2.65;;;;;;;2.67;100.00;97158.94;5025914;28;20060;-79
2023/01/11 00:24:38;;;;;;;3.15;2.40;;;;;;;2.61;100.00;97154.75;5017563;28;20029;-79
2023/01/11 00:27:03;;;;;;;1.50;1.20;;;;;;;2.58;100.00;97157.50;5019283;28;20045;-79
2023/01/11 00:29:29;;;;;;;8.48;3.55;;;;;;;2.63;100.00;97162.59;5014336;28;20079;-79
2023/01/11 00:31:54;;;;;;;2.28;2.08;;;;;;;2.62;100.00;97164.38;5014590;28;20025;-78
2023/01/11 00:34:22;;;;;;;5.78;3.72;;;;;;;2.53;100.00;97161.19;4997964;28;20026;-80
2023/01/11 00:36:48;;;;;;;2.50;2.03;;;;;;;2.51;100.00;97171.81;5003303;28;20033;-78
2023/01/11 00:39:14;;;;;;;2.00;1.77;;;;;;;2.58;100.00;97181.25;5013842;28;20052;-80
2023/01/11 00:49:57;;;;;;;2.53;2.33;;;;;;;2.36;100.00;97180.28;5010114;28;20111;-79
2023/01/11 00:52:22;;;;;;;2.10;1.92;;;;;;;2.28;100.00;97176.22;5013607;28;20029;-79
2023/01/11 00:54:49;;;;;;;1.88;1.77;;;;;;;2.28;100.00;97192.88;5013980;28;20126;-79
2023/01/11 00:57:18;;;;;;;33.35;4.53;;;;;;;2.21;100.00;97188.75;4990500;28;20484;-79
2023/01/11 00:59:44;;;;;;;5.28;2.58;;;;;;;2.11;100.00;97187.34;4993371;28;20061;-79
2023/01/11 01:02:10;;;;;;;2.88;2.60;;;;;;;2.13;100.00;97198.69;5010206;28;20067;-79
2023/01/11 01:04:36;;;;;;;5.38;3.83;;;;;;;2.06;100.00;97199.84;4997289;28;20029;-79
2023/01/11 01:07:01;;;;;;;2.03;1.80;;;;;;;2.02;100.00;97206.13;4985445;28;20026;-80
2023/01/11 01:09:27;;;;;;;5.00;3.20;;;;;;;1.99;100.00;97201.81;4994239;28;20032;-79
2023/01/11 01:11:53;;;;;;;1.23;1.15;;;;;;;2.01;100.00;97210.53;5010804;28;20025;-79
2023/01/11 01:14:25;;;;;;;2.80;1.67;;;;;;;2.02;100.00;97211.38;4996744;28;20033;-79
2023/01/11 01:16:51;;;;;;;2.70;2.33;;;;;;;2.05;100.00;97227.97;4994879;28;20034;-80
2023/01/11 01:19:17;;;;;;;1.20;1.20;;;;;;;1.99;100.00;97217.63;4994011;28;20037;-79
2023/01/11 01:21:43;;;;;;;1.92;1.83;;;;;;;2.00;100.00;97224.63;5011441;28;20496;-79
2023/01/11 01:24:09;;;;;;;3.60;2.65;;;;;;;1.97;100.00;97230.00;4996058;28;20037;-80
2023/01/11 01:26:34;;;;;;;2.58;2.20;;;;;;;1.99;100.00;97224.69;4996138;28;20037;-79
2023/01/11 01:29:00;;;;;;;3.33;2.13;;;;;;;2.00;100.00;97231.69;4997044;28;20029;-79
2023/01/11 01:31:25;;;;;;;2.80;1.55;;;;;;;1.87;100.00;97233.88;5013331;28;20030;-79
2023/01/11 01:33:51;;;;;;;1.52;1.45;;;;;;;1.93;100.00;97238.06;5013292;28;20034;-79
2023/01/11 01:36:16;;;;;;;2.13;1.95;;;;;;;1.84;100.00;97225.19;4996958;28;20034;-79
2023/01/11 01:38:42;;;;;;;3.92;2.20;;;;;;;1.96;100.00;97237.97;4997180;28;20036;-79
2023/01/11 01:41:10;;;;;;;2.78;1.85;;;;;;;1.89;100.00;97232.03;4991884;28;20549;-80
2023/01/11 01:43:52;;;;;;;1.13;1.02;;;;;;;1.95;100.00;97238.88;4996884;28;20033;-78
2023/01/11 01:46:19;;;;;;;2.83;2.08;;;;;;;1.89;100.00;97239.06;5013440;28;20141;-78
2023/01/11 01:49:00;;;;;;;0.95;0.93;;;;;;;1.97;100.00;97244.97;5012878;28;20029;-79
2023/01/11 01:51:33;;;;;;;2.78;1.90;;;;;;;2.03;100.00;97248.25;5030640;28;20504;-79
2023/01/11 01:54:02;;;;;;;1.08;1.00;;;;;;;1.99;100.00;97233.47;4996482;28;20220;-80
2023/01/11 01:56:31;;;;;;;2.30;1.27;;;;;;;1.95;100.00;97225.69;4996665;28;20025;-80
2023/01/11 01:59:01;;;;;;;0.75;0.75;;;;;;;1.92;100.00;97236.34;5012965;28;20029;-80
2023/01/11 02:04:15;;;;;;;3.03;2.72;;;;;;;1.81;100.00;97230.56;5015587;28;20068;-80
2023/01/11 02:06:41;;;;;;;2.03;1.92;;;;;;;1.84;100.00;97235.75;5030793;28;20132;-80
2023/01/11 02:09:26;;;;;;;1.58;1.45;;;;;;;1.79;100.00;97233.22;5012785;28;20071;-79
2023/01/11 02:11:54;;;;;;;1.35;1.30;;;;;;;1.67;100.00;97235.41;4996718;28;20045;-79
2023/01/11 02:14:21;;;;;;;2.20;2.08;;;;;;;1.69;100.00;97239.72;4996357;28;20037;-79
2023/01/11 02:16:46;;;;;;;2.00;1.85;;;;;;;1.70;100.00;97251.13;4996134;28;20037;-78
2023/01/11 02:19:51;;;;;;;3.55;3.25;;;;;;;1.74;100.00;97255.38;5012734;28;20156;-79
2023/01/11 02:22:24;;;;;;;1.70;1.60;;;;;;;1.70;100.00;97259.03;4989955;28;20077;-79
2023/01/11 02:25:19;;;;;;;4.45;2.95;;;;;;;1.54;100.00;97250.72;5012762;28;20034;-80
2023/01/11 02:28:03;;;;;;;1.80;1.65;;;;;;;1.55;100.00;97263.88;4993469;28;20503;-79
2023/01/11 02:30:36;;;;;;;8.50;2.85;;;;;;;1.47;100.00;97259.75;5012607;28;20034;-79
2023/01/11 02:33:20;;;;;;;6.07;3.72;;;;;;;1.53;100.00;97276.25;5012513;28;20025;-79
2023/01/11 02:36:12;;;;;;;3.90;2.55;;;;;;;1.61;100.00;97284.78;5009854;28;20029;-79
2023/01/11 02:38:50;;;;;;;2.42;2.20;;;;;;;1.64;100.00;97274.13;4998946;28;20033;-79
2023/01/11 02:45:00;;;;;;;3.95;2.95;;;;;;;1.58;100.00;97279.59;4999553;28;20487;-79
2023/01/11 02:47:17;;;;;;;2.78;1.60;;;;;;;1.48;100.00;97278.16;5018724;28;20032;-79
2023/01/11 02:49:51;;;;;;;3.75;1.77;;;;;;;1.50;100.00;97284.25;4999614;28;20448;-79
2023/01/11 02:52:33;;;;;;;2.63;2.40;;;;;;;1.60;100.00;97301.47;4999457;28;20037;-78
2023/01/11 02:55:00;;;;;;;1.10;1.10;;;;;;;1.63;100.00;97301.38;4999516;28;20037;-78
2023/01/11 02:57:28;;;;;;;4.25;3.38;;;;;;;1.62;100.00;97314.63;5015703;28;20477;-78
2023/01/11 02:59:56;;;;;;;2.45;1.70;;;;;;;1.70;100.00;97314.38;5015971;28;20519;-78
2023/01/11 03:02:22;;;;;;;2.00;1.85;;;;;;;1.81;100.00;97317.56;5016071;28;20071;-78
2023/01/11 03:04:48;;;;;;;2.10;1.90;;;;;;;1.75;100.00;97301.94;4998915;28;20207;-79
2023/01/11 03:07:19;;;;;;;2.08;1.55;;;;;;;1.78;100.00;97312.38;4999380;28;20525;-79
2023/01/11 03:09:55;;;;;;;3.50;3.03;;;;;;;1.74;100.00;97313.38;5015554;28;20091;-79
2023/01/11 03:13:03;;;;;;;2.45;1.60;;;;;;;1.71;100.00;97313.47;4999172;28;20848;-79
2023/01/11 03:15:28;;;;;;;1.48;1.38;;;;;;;1.78;100.00;97312.38;4999345;28;20129;-78
2023/01/11 03:18:14;;;;;;;1.63;1.55;;;;;;;1.77;100.00;97322.06;5032944;28;20102;-79
2023/01/11 03:21:03;;;;;;;3.15;2.42;;;;;;;1.78;100.00;97313.25;5014587;28;20111;-78
2023/01/11 03:23:40;;;;;;;10.27;3.50;;;;;;;1.80;100.00;97305.28;5007302;28;20065;-78
2023/01/11 03:26:30;;;;;;;1.40;1.35;;;;;;;1.83;100.00;97303.41;5015371;28;20029;-79
2023/01/11 03:29:05;;;;;;;1.33;1.23;;;;;;;1.84;100.00;97317.47;5015071;28;20044;-79
2023/01/11 03:31:51;;;;;;;4.38;3.33;;;;;;;1.80;100.00;97297.38;5015268;28;20026;-78
2023/01/11 03:34:33;;;;;;;2.33;1.98;;;;;;;1.83;100.00;97313.09;5015030;28;20033;-79
2023/01/11 03:37:16;;;;;;;4.88;1.90;;;;;;;1.85;100.00;97308.63;4998583;28;20123;-79
2023/01/11 03:39:50;;;;;;;1.80;1.67;;;;;;;1.81;100.00;97301.75;5014587;28;20030;-79
2023/01/11 03:42:19;;;;;;;11.25;2.67;;;;;;;1.81;100.00;97310.53;5014972;28;20033;-80
2023/01/11 03:44:47;;;;;;;0.93;0.93;;;;;;;1.85;100.00;97322.69;4997582;28;20044;-79
2023/01/11 03:47:15;;;;;;;2.88;2.63;;;;;;;1.84;100.00;97312.19;4998492;28;20119;-79
2023/01/11 03:49:49;;;;;;;1.33;1.17;;;;;;;1.84;100.00;97306.91;4997576;28;20180;-79
2023/01/11 03:52:17;;;;;;;1.92;1.83;;;;;;;1.84;100.00;97317.47;4998458;28;20021;-78
2023/01/11 03:54:43;;;;;;;0.68;0.68;;;;;;;1.75;100.00;97330.94;4998307;28;20033;-77
2023/01/11 03:57:38;;;;;;;0.65;0.65;;;;;;;1.62;100.00;97318.13;4998077;28;20107;-79
2023/01/11 04:00:05;;;;;;;1.92;1.40;;;;;;;1.67;100.00;97335.56;4998226;28;20478;-78
2023/01/11 04:02:38;;;;;;;10.82;2.92;;;;;;;1.64;100.00;97339.16;5014613;28;20473;-80
2023/01/11 04:05:04;;;;;;;0.70;0.70;;;;;;;1.50;100.00;97339.59;5014773;28;20018;-78
2023/01/11 04:07:30;;;;;;;3.17;2.70;;;;;;;1.51;100.00;97348.31;4998060;28;20061;-79
2023/01/11 04:09:57;;;;;;;2.13;1.92;;;;;;;1.38;100.00;97336.44;4997918;28;20057;-78
2023/01/11 04:12:23;;;;;;;1.63;1.52;;;;;;;1.50;100.00;97360.66;4998253;28;20116;-79
2023/01/11 04:14:49;;;;;;;1.55;1.48;;;;;;;1.40;100.00;97356.56;4998079;28;20032;-79
2023/01/11 04:17:14;;;;;;;4.78;3.92;;;;;;;1.41;100.00;97349.53;4997930;28;20033;-79
2023/01/11 04:19:40;;;;;;;9.80;4.35;;;;;;;1.29;100.00;97348.13;4993786;28;20025;-79
2023/01/11 04:22:06;;;;;;;26.67;5.85;;;;;;;1.26;100.00;97349.97;5014242;28;20461;-79
2023/01/11 04:24:31;;;;;;;3.83;3.13;;;;;;;1.28;100.00;97364.81;4997747;28;20040;-79
2023/01/11 04:26:57;;;;;;;0.63;0.63;;;;;;;1.25;100.00;97348.25;4997496;28;20040;-79
2023/01/11 04:29:22;;;;;;;2.50;2.30;;;;;;;1.31;100.00;97358.59;4997698;28;20119;-79
2023/01/11 04:31:48;;;;;;;1.20;1.20;;;;;;;1.34;100.00;97369.91;4997537;28;20026;-79
2023/01/11 04:34:13;;;;;;;2.45;1.83;;;;;;;1.33;100.00;97376.06;5014288;28;20041;-80
2023/01/11 04:36:39;;;;;;;15.55;4.18;;;;;;;1.41;100.00;97387.28;4997285;28;20025;-84
2023/01/11 04:39:05;;;;;;;2.60;2.42;;;;;;;1.39;100.00;97378.53;5009238;28;20030;-78
2023/01/11 04:44:14;;;;;;;2.55;2.38;;;;;;;1.40;100.00;97396.09;5016981;28;20531;-78
2023/01/11 04:46:40;;;;;;;7.68;2.75;;;;;;;1.45;100.00;97409.13;4997136;28;20025;-79
2023/01/11 04:49:05;;;;;;;3.08;2.80;;;;;;;1.48;100.00;97407.25;4997204;28;20544;-79
2023/01/11 04:51:31;;;;;;;4.95;1.55;;;;;;;1.48;100.00;97409.03;4997245;28;20478;-79
2023/01/11 04:53:57;;;;;;;4.40;2.13;;;;;;;1.31;100.00;97388.44;4997662;28;20021;-79
2023/01/11 04:56:22;;;;;;;3.22;2.22;;;;;;;1.42;100.00;97404.81;4997340;28;20382;-80
2023/01/11 04:58:48;;;;;;;1.38;1.38;;;;;;;1.37;100.00;97417.25;4997163;28;20029;-79
2023/01/11 05:01:16;;;;;;;1.75;1.65;;;;;;;1.40;100.00;97421.56;5013572;28;20483;-79
2023/01/11 05:03:44;;;;;;;4.60;3.35;;;;;;;1.35;100.00;97424.34;5013199;28;20033;-79
2023/01/11 05:06:10;;;;;;;1.02;1.00;;;;;;;1.29;100.00;97415.75;5013521;28;20053;-78
2023/01/11 05:08:35;;;;;;;3.60;2.90;;;;;;;1.28;100.00;97409.59;4997105;28;20030;-78
2023/01/11 05:11:06;;;;;;;1.85;1.58;;;;;;;1.33;100.00;97410.31;5013567;28;20030;-78
2023/01/11 05:13:41;;;;;;;6.63;3.50;;;;;;;1.29;100.00;97421.88;5013574;28;20056;-79
2023/01/11 05:16:08;;;;;;;3.47;2.33;;;;;;;1.19;100.00;97412.50;4998114;28;20419;-78
2023/01/11 05:18:34;;;;;;;1.88;1.77;;;;;;;1.10;100.00;97412.75;5013736;28;20029;-79
2023/01/11 05:21:01;;;;;;;4.38;2.45;;;;;;;1.19;100.00;97432.69;5014681;28;20112;-81
2023/01/11 05:23:26;;;;;;;3.72;3.47;;;;;;;1.12;100.00;97432.00;4992696;28;20548;-77
2023/01/11 05:25:52;;;;;;;3.03;2.78;;;;;;;1.19;100.00;97436.19;4994419;28;20117;-79
2023/01/11 05:28:17;;;;;;;7.40;2.80;;;;;;;1.25;100.00;97451.84;5011283;28;20484;-79
2023/01/11 05:30:43;;;;;;;2.70;2.45;;;;;;;1.17;100.00;97432.72;5011292;28;20544;-80
2023/01/11 05:33:08;;;;;;;3.70;3.03;;;;;;;1.20;100.00;97440.53;4996449;28;20072;-80
2023/01/11 05:35:34;;;;;;;3.08;2.80;;;;;;;1.15;100.00;97442.44;4996357;28;20032;-79
2023/01/11 05:37:59;;;;;;;5.25;4.38;;;;;;;1.19;100.00;97454.63;5013219;28;20048;-80
2023/01/11 05:40:25;;;;;;;7.38;5.60;;;;;;;1.08;100.00;97435.59;4996878;28;20025;-79
2023/01/11 05:42:50;;;;;;;7.18;5.10;;;;;;;1.15;100.00;97452.97;4996693;28;20022;-79
2023/01/11 05:45:37;;;;;;;4.32;3.72;;;;;;;1.18;100.00;97455.53;4996389;28;20033;-79
2023/01/11 05:48:02;;;;;;;14.88;3.65;;;;;;;1.16;100.00;97457.34;5013014;28;20037;-78
2023/01/11 05:50:28;;;;;;;7.82;5.13;;;;;;;1.21;100.00;97451.94;4996496;28;20097;-79
2023/01/11 05:52:54;;;;;;;8.32;5.88;;;;;;;1.22;100.00;97473.00;4995510;28;20477;-79
2023/01/11 05:55:19;;;;;;;7.85;5.35;;;;;;;1.20;100.00;97476.56;4996342;28;20045;-80
2023/01/11 05:57:45;;;;;;;7.60;4.10;;;;;;;1.28;100.00;97475.47;4996510;28;20485;-78
2023/01/11 06:00:12;;;;;;;11.82;6.75;;;;;;;1.34;100.00;97485.84;4996518;28;20041;-78
2023/01/11 06:05:37;;;;;;;4.00;3.65;;;;;;;1.10;100.00;97449.59;4934060;29;20042;-80
2023/01/11 06:08:03;;;;;;;12.85;4.97;;;;;;;1.20;100.00;97472.16;4934797;29;20028;-79
2023/01/11 06:10:29;;;;;;;2.13;1.75;;;;;;;1.18;100.00;97488.91;5009326;28;20053;-80
2023/01/11 06:13:25;;;;;;;5.05;2.10;;;;;;;1.25;100.00;97487.84;4998131;28;20022;-78
2023/01/11 06:15:40;;;;;;;7.60;3.35;;;;;;;1.39;100.00;97512.91;5013210;28;20386;-80
2023/01/11 06:18:05;;;;;;;7.95;3.67;;;;;;;1.37;100.00;97517.38;4994775;28;20029;-80
2023/01/11 06:20:31;;;;;;;3.17;2.97;;;;;;;1.41;100.00;97524.28;5000209;28;20507;-79
2023/01/11 06:22:56;;;;;;;6.30;4.85;;;;;;;1.56;100.00;97528.28;4996842;28;20045;-79
2023/01/11 06:25:22;;;;;;;5.45;3.83;;;;;;;1.64;100.00;97540.34;5000145;28;20503;-79
2023/01/11 06:27:52;;;;;;;3.60;2.15;;;;;;;1.47;100.00;97524.13;5000297;28;20037;-81
2023/01/11 06:30:19;;;;;;;5.63;2.60;;;;;;;1.34;100.00;97525.34;5015684;28;20037;-80
2023/01/11 06:32:45;;;;;;;2.03;1.90;;;;;;;1.28;100.00;97522.88;5034082;28;20025;-80
2023/01/11 06:35:10;;;;;;;3.13;2.63;;;;;;;1.25;100.00;97525.59;5017040;28;20045;-79
2023/01/11 06:37:38;;;;;;;9.98;3.83;;;;;;;1.40;100.00;97538.38;4997782;28;20397;-79
2023/01/11 06:40:04;;;;;;;3.75;2.10;;;;;;;1.40;100.00;97517.28;5016504;28;20476;-79
2023/01/11 06:42:30;;;;;;;6.25;3.30;;;;;;;1.62;100.00;97551.84;4999543;28;20072;-79
2023/01/11 06:44:55;;;;;;;5.32;3.00;;;;;;;1.70;100.00;97535.81;4999845;28;20029;-80
2023/01/11 06:47:21;;;;;;;4.63;4.18;;;;;;;1.76;100.00;97547.06;5016434;28;20412;-80
2023/01/11 06:49:46;;;;;;;4.05;2.75;;;;;;;1.77;100.00;97545.28;5014068;28;20050;-80
2023/01/11 06:52:12;;;;;;;2.22;1.75;;;;;;;1.70;100.00;97541.94;5005191;28;20021;-80
2023/01/11 06:54:37;;;;;;;6.78;4.30;;;;;;;1.77;100.00;97542.66;4989004;28;20129;-80
2023/01/11 06:57:03;;;;;;;4.28;3.17;;;;;;;1.70;100.00;97527.91;4981833;28;20125;-80
2023/01/11 06:59:28;;;;;;;4.05;3.72;;;;;;;1.86;100.00;97539.75;4996479;28;20072;-80
2023/01/11 07:01:57;;;;;;;5.20;3.83;;;;;;;1.93;100.00;97543.97;5001677;28;20034;-82
2023/01/11 07:04:23;;;;;;;7.78;3.95;;;;;;;1.99;100.00;97554.34;4989711;28;20109;-80
2023/01/11 07:06:53;;;;;;;5.72;3.90;;;;;;;2.01;100.00;97553.38;5008314;28;20056;-79
2023/01/11 07:09:19;;;;;;;4.43;3.53;;;;;;;2.08;100.00;97548.78;5005222;28;20021;-80
2023/01/11 07:11:44;;;;;;;7.15;4.10;;;;;;;2.22;100.00;97551.88;4987056;28;20037;-79
2023/01/11 07:14:13;;;;;;;5.22;4.10;;;;;;;2.27;100.00;97552.66;4980919;28;20045;-79
2023/01/11 07:16:39;;;;;;;9.55;6.38;;;;;;;2.20;100.00;97532.63;4988455;28;20397;-79
2023/01/11 07:19:05;;;;;;;3.38;3.05;;;;;;;2.26;100.00;97524.50;4989432;28;20025;-78
2023/01/11 07:21:31;;;;;;;8.15;5.18;;;;;;;2.47;100.00;97533.56;5003031;28;20105;-78
2023/01/11 07:23:56;;;;;;;7.00;4.63;;;;;;;2.53;100.00;97523.69;5006119;28;20068;-79
2023/01/11 07:26:22;;;;;;;6.28;5.68;;;;;;;2.48;100.00;97516.81;4990731;28;20115;-79
2023/01/11 07:28:47;;;;;;;6.50;5.07;;;;;;;2.57;100.00;97511.25;4994698;28;20063;-79
2023/01/11 07:31:13;;;;;;;3.53;3.22;;;;;;;2.71;100.00;97520.47;4986750;28;20053;-80
2023/01/11 07:33:38;;;;;;;8.68;6.40;;;;;;;2.82;100.00;97516.63;5012416;28;20513;-80
2023/01/11 07:36:05;;;;;;;8.90;4.80;;;;;;;2.97;100.00;97524.06;4987896;28;20022;-80
2023/01/11 07:38:31;;;;;;;9.18;5.72;;;;;;;2.94;100.00;97510.94;5002827;28;20449;-79
2023/01/11 07:40:56;;;;;;;13.55;7.72;;;;;;;2.99;100.00;97509.00;5012652;28;20095;-79
2023/01/11 07:43:22;;;;;;;17.60;8.00;;;;;;;3.05;100.00;97500.88;4993395;28;20033;-80
2023/01/11 07:45:49;;;;;;;9.23;7.25;;;;;;;3.12;100.00;97495.38;5003767;28;20508;-81
2023/01/11 07:48:19;;;;;;;7.80;5.78;;;;;;;3.26;100.00;97497.56;4984742;28;20028;-79
2023/01/11 07:50:45;;;;;;;10.15;5.68;;;;;;;3.36;100.00;97506.88;4998402;28;20192;-79
2023/01/11 07:53:12;;;;;;;7.45;6.22;;;;;;;3.48;100.00;97502.94;4998603;28;20105;-79
2023/01/11 07:55:38;;;;;;;5.63;4.65;;;;;;;3.43;100.00;97484.63;4998692;28;20033;-80
2023/01/11 07:58:05;;;;;;;11.38;5.45;;;;;;;3.72;100.00;97487.06;5015070;28;20046;-81
2023/01/11 08:00:30;;;;;;;20.27;6.90;;;;;;;3.79;100.00;97480.66;4998973;28;20378;-80
2023/01/11 08:02:56;;;;;;;6.57;4.40;;;;;;;4.19;100.00;97498.56;5014423;28;20021;-79
2023/01/11 08:05:22;;;;;;;25.33;9.13;;;;;;;4.30;100.00;97477.88;5015197;28;20492;-79
2023/01/11 08:07:47;;;;;;;11.02;6.72;;;;;;;4.22;100.00;97469.34;5014491;28;20156;-79
2023/01/11 08:10:13;;;;;;;7.55;6.85;;;;;;;4.29;100.00;97460.25;4998259;28;20041;-80
2023/01/11 08:15:28;;;;;;;7.93;6.70;;;;;;;4.42;100.00;97484.47;5014722;28;20175;-79
2023/01/11 08:17:53;;;;;;;10.77;8.20;;;;;;;4.40;100.00;97478.34;4998558;28;20112;-79
2023/01/11 08:20:19;;;;;;;5.22;3.97;;;;;;;4.23;100.00;97478.13;4998316;28;20052;-79
2023/01/11 08:22:45;;;;;;;18.27;5.53;;;;;;;4.15;100.00;97486.34;4998188;28;20026;-80
2023/01/11 08:25:11;;;;;;;10.68;7.38;;;;;;;4.50;100.00;97492.97;4997879;28;20033;-80
2023/01/11 08:27:36;;;;;;;6.50;5.03;;;;;;;4.45;100.00;97476.41;4997992;28;20499;-80
2023/01/11 08:30:02;;;;;;;13.57;6.32;;;;;;;4.37;100.00;97478.47;4997764;28;20049;-79
2023/01/11 08:32:28;;;;;;;6.53;4.47;;;;;;;4.24;100.00;97471.94;4997974;28;20495;-80
2023/01/11 08:34:54;;;;;;;6.03;5.30;;;;;;;4.38;100.00;97466.97;4997412;28;20108;-80
2023/01/11 08:37:19;;;;;;;5.60;4.32;;;;;;;4.80;100.00;97491.75;4997674;28;20033;-80
2023/01/11 08:39:45;;;;;;;7.95;6.00;;;;;;;5.28;100.00;97483.59;4997860;28;20029;-79
2023/01/11 08:42:11;;;;;;;7.63;5.20;;;;;;;5.61;100.00;97465.38;5013769;28;20029;-79
2023/01/11 08:44:36;;;;;;;12.40;5.97;;;;;;;5.64;100.00;97443.13;5013834;28;20405;-80
2023/01/11 08:47:02;;;;;;;17.67;9.52;;;;;;;5.52;100.00;97436.59;4997170;28;20040;-78
2023/01/11 08:49:29;;;;;;;24.45;11.27;;;;;;;5.21;100.00;97428.22;4997330;28;20651;-79
2023/01/11 08:51:55;;;;;;;15.30;6.93;;;;;;;5.36;100.00;97435.50;4997582;28;20409;-80
2023/01/11 08:54:20;;;;;;;14.77;8.88;;;;;;;5.43;100.00;97448.47;5013716;28;20029;-78
2023/01/11 08:56:46;;;;;;;17.77;7.00;;;;;;;5.75;100.00;97440.88;4997327;28;20052;-78
2023/01/11 08:59:12;;;;;;;10.18;8.25;;;;;;;5.95;100.00;97424.94;5013332;28;20033;-79
2023/01/11 09:01:38;;;;;;;11.93;8.13;;;;;;;6.03;100.00;97422.78;4997323;28;20114;-79
2023/01/11 09:04:04;;;;;;;9.35;8.02;;;;;;;6.10;100.00;97421.59;5013503;28;20033;-79
2023/01/11 09:06:29;;;;;;;16.73;6.97;;;;;;;5.93;100.00;97414.41;5013729;28;20030;-79
2023/01/11 09:08:55;;;;;;;12.75;8.30;;;;;;;5.95;100.00;97416.97;4997261;28;20021;-79
2023/01/11 09:14:04;;;;;;;18.67;7.07;;;;;;;5.53;100.00;97418.88;5015895;28;20087;-79
2023/01/11 09:16:30;;;;;;;16.73;9.23;;;;;;;5.94;100.00;97418.78;5013555;28;20465;-78
2023/01/11 09:18:56;;;;;;;17.25;9.88;;;;;;;6.43;100.00;97413.81;4997149;28;20057;-79
2023/01/11 09:21:22;;;;;;;16.10;9.23;;;;;;;6.79;100.00;97405.88;5013080;28;20037;-79
2023/01/11 09:23:47;;;;;;;16.92;6.97;;;;;;;7.19;100.00;97394.97;5013802;28;20475;-79
2023/01/11 09:26:14;;;;;;;19.75;9.15;;;;;;;7.58;100.00;97392.91;4997034;28;20124;-80
2023/01/11 09:28:40;;;;;;;17.33;8.15;;;;;;;8.34;100.00;97387.91;5013310;28;20028;-80
2023/01/11 09:31:06;;;;;;;19.38;11.82;;;;;;;10.10;100.00;97375.59;4996873;28;20030;-80
2023/01/11 09:33:33;;;;;;;25.08;11.20;;;;;;;10.81;95.71;97318.34;5013634;28;20465;-81
2023/01/11 09:36:00;;;;;;;19.38;8.88;;;;;;;11.09;89.75;97287.06;4997162;28;20049;-81
2023/01/11 09:38:28;;;;;;;8.63;6.43;;;;;;;11.15;89.75;97270.56;5013387;28;20087;-80
2023/01/11 09:41:05;;;;;;;17.08;8.57;;;;;;;10.33;90.45;97247.59;4997265;28;20026;-83
2023/01/11 09:43:31;;;;;;;21.10;6.30;;;;;;;8.87;97.42;97224.88;5013115;28;20489;-81
2023/01/11 09:46:03;;;;;;;8.23;5.68;;;;;;;8.44;100.00;97240.75;4997071;28;20489;-81
2023/01/11 09:48:42;;;;;;;14.48;6.30;;;;;;;7.88;100.00;97227.13;4999848;28;20022;-81
2023/01/11 09:51:11;;;;;;;6.90;4.93;;;;;;;8.08;100.00;97261.50;5017247;28;20203;-81
2023/01/11 09:53:37;;;;;;;28.13;5.53;;;;;;;8.12;100.00;97266.53;4998008;28;20041;-80
2023/01/11 09:56:07;;;;;;;7.82;5.53;;;;;;;8.13;100.00;97267.41;4997449;28;20030;-80
2023/01/11 09:58:54;;;;;;;10.77;5.63;;;;;;;8.42;100.00;97271.09;5017179;28;20052;-80
2023/01/11 10:01:40;;;;;;;5.53;3.38;;;;;;;8.04;100.00;97252.81;5012940;28;20103;-80
2023/01/11 10:04:24;;;;;;;2.45;2.13;;;;;;;8.00;100.00;97253.91;5000555;28;20049;-80
2023/01/11 10:06:59;;;;;;;4.82;3.53;;;;;;;8.30;100.00;97269.16;5010434;28;20544;-80
2023/01/11 10:09:31;;;;;;;2.67;2.08;;;;;;;8.47;100.00;97259.22;5015940;28;20468;-79
2023/01/11 10:12:30;;;;;;;5.97;3.35;;;;;;;8.34;100.00;97252.00;5016870;28;20017;-81
2023/01/11 10:15:18;;;;;;;3.47;1.42;;;;;;;7.88;100.00;97240.44;5016841;28;20030;-79
2023/01/11 10:18:02;;;;;;;0.77;0.77;;;;;;;7.71;100.00;97240.53;5017308;28;20048;-80
2023/01/11 10:20:37;;;;;;;0.50;0.50;;;;;;;7.99;100.00;97248.69;5030415;28;20086;-80
2023/01/11 10:23:11;;;;;;;5.68;1.50;;;;;;;8.44;100.00;97255.88;5000805;28;20017;-80
2023/01/11 10:25:49;;;;;;;4.70;3.00;;;;;;;8.96;100.00;97254.50;5016811;28;20031;-81
2023/01/11 10:28:45;;;;;;;2.50;1.13;;;;;;;9.57;100.00;97251.59;5001015;28;20034;-80
2023/01/11 10:32:08;;;;;;;1.20;1.10;;;;;;;9.48;98.27;97225.47;5000229;28;20524;-80
2023/01/11 10:35:16;;;;;;;1.13;1.02;;;;;;;9.38;100.00;97231.50;5016674;28;20029;-81
2023/01/11 10:40:18;;;;;;;4.50;2.83;;;;;;;10.07;97.79;97247.53;5013307;28;20517;-82
2023/01/11 10:42:51;;;;;;;2.67;2.33;;;;;;;9.85;100.00;97263.19;5002239;28;20044;-80
2023/01/11 10:45:24;;;;;;;5.15;2.72;;;;;;;8.95;100.00;97231.44;5000253;28;20129;-80
2023/01/11 10:48:04;;;;;;;1.23;0.90;;;;;;;9.36;100.00;97274.28;5000388;28;20036;-82
2023/01/11 10:50:37;;;;;;;0.60;0.60;;;;;;;9.18;100.00;97281.63;5012573;28;20038;-79
2023/01/11 10:53:15;;;;;;;1.70;1.60;;;;;;;9.38;100.00;97292.91;5022682;28;20516;-82
2023/01/11 10:55:52;;;;;;;1.50;1.17;;;;;;;9.67;100.00;97291.94;5000690;28;20057;-80
2023/01/11 10:58:30;;;;;;;1.63;1.52;;;;;;;9.67;100.00;97289.28;4985597;28;20040;-80
2023/01/11 11:01:23;;;;;;;1.17;0.85;;;;;;;9.71;100.00;97290.81;4994619;28;20025;-80
2023/01/11 11:04:15;;;;;;;1.30;0.98;;;;;;;9.43;100.00;97286.31;4996718;28;20038;-81
2023/01/11 11:06:46;;;;;;;0.70;0.43;;;;;;;9.35;100.00;97293.09;4980716;28;20044;-79
2023/01/11 11:09:21;;;;;;;0.45;0.45;;;;;;;9.79;100.00;97286.69;5020715;28;20033;-80
2023/01/11 11:11:54;;;;;;;3.15;1.17;;;;;;;9.77;98.65;97280.59;4983328;28;20478;-78
2023/01/11 11:14:27;;;;;;;17.38;9.05;;;;;;;9.49;92.84;97274.41;4984287;28;20100;-76
2023/01/11 11:17:14;;;;;;;1.25;1.15;;;;;;;9.05;98.85;97285.97;4980883;28;20529;-78
2023/01/11 11:19:40;;;;;;;0.55;0.30;;;;;;;8.92;99.15;97284.97;5002865;28;20405;-80
2023/01/11 11:22:07;;;;;;;0.35;0.35;;;;;;;9.20;95.28;97282.38;5009211;28;20037;-80
2023/01/11 11:25:04;;;;;;;0.40;0.40;;;;;;;9.33;96.52;97290.50;5010207;28;20064;-80
2023/01/11 11:27:39;;;;;;;0.40;0.40;;;;;;;9.22;97.53;97292.97;5007998;28;20156;-79
2023/01/11 11:30:09;;;;;;;1.17;1.10;;;;;;;9.48;93.58;97275.34;5010135;28;20029;-80
2023/01/11 11:32:37;;;;;;;1.75;1.55;;;;;;;9.62;91.66;97280.69;4993122;28;20486;-80
2023/01/11 11:35:03;;;;;;;4.45;1.23;;;;;;;9.53;92.43;97273.25;4991856;28;20520;-80
2023/01/11 11:37:41;;;;;;;3.67;1.08;;;;;;;9.62;93.36;97276.22;4993900;28;20105;-80
2023/01/11 11:40:27;;;;;;;2.60;1.48;;;;;;;9.71;95.00;97269.44;5007859;28;20033;-80
2023/01/11 11:43:19;;;;;;;2.08;1.85;;;;;;;9.80;92.96;97277.72;4984457;28;20108;-80
2023/01/11 11:45:55;;;;;;;2.20;2.00;;;;;;;9.90;89.68;97269.13;4989437;28;20029;-80
2023/01/11 11:48:22;;;;;;;4.47;2.10;;;;;;;9.97;87.65;97265.94;4985305;28;20026;-80
2023/01/11 11:50:48;;;;;;;1.83;1.70;;;;;;;10.43;86.32;97269.19;4992881;28;20202;-82
2023/01/11 11:53:43;;;;;;;2.58;2.13;;;;;;;12.55;74.42;97289.06;4998413;28;20029;-81
2023/01/11 11:56:26;;;;;;;2.55;2.28;;;;;;;14.77;60.51;97275.09;5014422;28;20075;-81
2023/01/11 11:58:59;;;;;;;1.17;0.82;;;;;;;15.77;55.11;97242.25;4998850;28;20033;-81
2023/01/11 12:01:29;;;;;;;1.10;1.00;;;;;;;16.98;51.12;97245.56;4998782;28;20048;-80
2023/01/11 12:03:57;;;;;;;4.32;2.60;;;;;;;16.97;51.31;97245.72;4995923;28;20034;-80
2023/01/11 12:06:25;;;;;;;5.45;1.95;;;;;;;17.73;49.58;97248.38;4996050;28;20025;-81
2023/01/11 12:08:51;;;;;;;2.30;1.80;;;;;;;18.52;46.46;97237.94;4999026;28;20506;-80
2023/01/11 12:11:34;;;;;;;12.05;3.38;;;;;;;15.55;50.19;97190.19;5001881;28;20188;-79
2023/01/11 12:14:13;;;;;;;3.97;2.13;;;;;;;14.91;54.69;97231.72;5000369;28;20482;-79